Time;durP1;ratioP1;P1;durP2;ratioP2;P2;SDS_P1;SDS_P2;PMS_P1;PMS_P2;Temp;Humidity;BMP_temperature;BMP_pressure;BME280_temperature;BME280_humidity;BME280_pressure;Samples;Min_cycle;Max_cycle;Signal;HPM_P1;HPM_P2
2021/10/31 00:01:13;;;;;;;0.05;0.03;;;11.70;99.90;;;;;;6296041;22;20019;-79
2021/10/31 00:03:40;;;;;;;0.20;0.20;;;11.70;99.90;;;;;;6271449;22;20474;-79
2021/10/31 00:06:07;;;;;;;0.00;0.00;;;11.70;99.90;;;;;;6296211;22;20023;-79
2021/10/31 00:08:34;;;;;;;0.00;0.00;;;11.70;99.90;;;;;;6321998;22;20019;-79
2021/10/31 00:11:02;;;;;;;0.00;0.00;;;11.70;99.90;;;;;;6296478;22;20016;-79
2021/10/31 00:13:29;;;;;;;0.00;0.00;;;11.60;99.90;;;;;;6296624;22;20086;-79
2021/10/31 00:15:56;;;;;;;0.00;0.00;;;11.70;99.90;;;;;;6296614;22;20440;-79
2021/10/31 00:18:23;;;;;;;0.10;0.10;;;11.70;99.90;;;;;;6246087;22;20026;-79
2021/10/31 00:20:50;;;;;;;0.00;0.00;;;11.70;99.90;;;;;;6271238;22;20416;-79
2021/10/31 00:23:17;;;;;;;0.00;0.00;;;11.60;99.90;;;;;;6295962;22;20019;-79
2021/10/31 00:25:44;;;;;;;0.00;0.00;;;11.70;99.90;;;;;;6296782;22;20023;-79
2021/10/31 00:28:11;;;;;;;0.03;0.03;;;11.60;99.90;;;;;;6271030;22;20395;-80
2021/10/31 00:30:37;;;;;;;0.00;0.00;;;11.60;99.90;;;;;;6322255;22;20022;-79
2021/10/31 00:33:04;;;;;;;0.00;0.00;;;11.60;99.90;;;;;;6296087;22;20019;-79
2021/10/31 00:35:31;;;;;;;0.00;0.00;;;11.60;99.90;;;;;;6321986;22;20344;-80
2021/10/31 00:37:57;;;;;;;0.00;0.00;;;11.60;99.90;;;;;;6271577;22;20051;-79
2021/10/31 00:40:24;;;;;;;0.00;0.00;;;11.50;99.90;;;;;;6270972;22;20019;-79
2021/10/31 00:42:51;;;;;;;0.00;0.00;;;11.50;99.90;;;;;;6321849;22;20019;-79
2021/10/31 00:45:18;;;;;;;0.10;0.10;;;11.40;99.90;;;;;;6296286;22;20019;-79
2021/10/31 00:47:45;;;;;;;0.00;0.00;;;11.40;99.90;;;;;;6271332;22;20015;-79
2021/10/31 00:50:12;;;;;;;0.00;0.00;;;11.30;99.90;;;;;;6320959;22;20081;-79
2021/10/31 00:52:39;;;;;;;0.03;0.03;;;11.30;99.90;;;;;;6296676;22;20086;-79
2021/10/31 00:55:06;;;;;;;0.20;0.20;;;11.20;99.90;;;;;;6270940;22;20399;-79
2021/10/31 00:57:32;;;;;;;0.00;0.00;;;11.20;99.90;;;;;;6296340;22;20015;-79
2021/10/31 00:59:59;;;;;;;0.00;0.00;;;11.20;99.90;;;;;;6247509;22;20451;-79
2021/10/31 01:02:26;;;;;;;0.00;0.00;;;11.10;99.90;;;;;;6248148;22;20026;-79
2021/10/31 01:04:57;;;;;;;0.00;0.00;;;11.10;99.90;;;;;;6298154;22;20344;-79
2021/10/31 01:08:03;;;;;;;0.00;0.00;;;11.10;99.90;;;;;;6323041;22;20019;-79
2021/10/31 01:11:07;;;;;;;0.00;0.00;;;11.00;99.90;;;;;;6298184;22;20012;-79
2021/10/31 01:13:48;;;;;;;0.00;0.00;;;11.00;99.90;;;;;;6323348;22;20015;-79
2021/10/31 01:16:29;;;;;;;0.00;0.00;;;10.90;99.90;;;;;;6323020;22;20344;-79
2021/10/31 01:19:11;;;;;;;0.00;0.00;;;10.90;99.90;;;;;;6297921;22;20038;-79
2021/10/31 01:22:13;;;;;;;0.00;0.00;;;10.80;99.90;;;;;;6298088;22;20069;-79
2021/10/31 01:25:01;;;;;;;0.00;0.00;;;10.80;99.90;;;;;;6200392;23;20343;-80
2021/10/31 01:27:46;;;;;;;0.00;0.00;;;10.80;99.90;;;;;;6291338;22;20072;-79
2021/10/31 01:30:28;;;;;;;0.00;0.00;;;10.80;99.90;;;;;;6322936;22;20015;-79
2021/10/31 01:33:13;;;;;;;0.20;0.20;;;10.80;99.90;;;;;;6298103;22;20019;-79
2021/10/31 01:35:55;;;;;;;0.00;0.00;;;10.80;99.90;;;;;;6298108;22;20388;-79
2021/10/31 01:38:49;;;;;;;0.10;0.10;;;10.80;99.90;;;;;;6297218;22;20022;-79
2021/10/31 01:41:34;;;;;;;0.00;0.00;;;10.80;99.90;;;;;;6297578;22;20015;-80
2021/10/31 01:44:22;;;;;;;0.00;0.00;;;10.80;99.90;;;;;;6323339;22;20019;-79
2021/10/31 01:47:22;;;;;;;0.00;0.00;;;10.80;99.90;;;;;;6297007;22;20046;-79
2021/10/31 01:49:59;;;;;;;0.00;0.00;;;10.80;99.90;;;;;;6297388;22;20399;-79
2021/10/31 01:52:51;;;;;;;0.00;0.00;;;10.80;99.90;;;;;;6322823;22;20021;-79
2021/10/31 01:55:22;;;;;;;0.17;0.10;;;10.80;99.90;;;;;;6321515;22;20011;-79
2021/10/31 01:57:54;;;;;;;0.10;0.10;;;10.70;99.90;;;;;;6323039;22;20081;-79
2021/10/31 02:00:22;;;;;;;0.00;0.00;;;10.80;99.90;;;;;;6323083;22;20026;-79
2021/10/31 02:02:50;;;;;;;0.00;0.00;;;10.80;99.90;;;;;;6297561;22;20438;-79
2021/10/31 02:05:23;;;;;;;0.00;0.00;;;10.70;99.90;;;;;;6297304;22;20025;-79
2021/10/31 02:07:52;;;;;;;0.00;0.00;;;10.70;99.90;;;;;;6323169;22;20017;-79
2021/10/31 02:10:21;;;;;;;0.00;0.00;;;10.70;99.90;;;;;;6322455;22;20432;-79
2021/10/31 02:12:49;;;;;;;0.00;0.00;;;10.70;99.90;;;;;;6297713;22;20015;-79
2021/10/31 02:15:18;;;;;;;0.00;0.00;;;10.70;99.90;;;;;;6246511;22;20088;-79
2021/10/31 02:17:51;;;;;;;0.00;0.00;;;10.70;99.90;;;;;;6323190;22;20463;-79
2021/10/31 02:20:19;;;;;;;0.00;0.00;;;10.70;99.90;;;;;;6322760;22;20080;-79
2021/10/31 02:22:57;;;;;;;0.00;0.00;;;10.80;99.90;;;;;;6322901;22;20026;-79
2021/10/31 02:25:25;;;;;;;0.00;0.00;;;10.80;99.90;;;;;;6298228;22;20023;-79
2021/10/31 02:27:52;;;;;;;0.00;0.00;;;10.80;99.90;;;;;;6247544;22;20043;-79
2021/10/31 02:30:19;;;;;;;0.00;0.00;;;10.80;99.90;;;;;;6322585;22;20459;-79
2021/10/31 02:32:47;;;;;;;0.65;0.10;;;10.70;99.90;;;;;;6272280;22;20018;-79
2021/10/31 02:35:14;;;;;;;0.00;0.00;;;10.70;99.90;;;;;;6271882;22;20487;-79
2021/10/31 02:37:42;;;;;;;0.00;0.00;;;10.70;99.90;;;;;;6246968;22;20127;-79
2021/10/31 02:40:12;;;;;;;0.20;0.15;;;10.70;99.90;;;;;;6246901;22;20081;-79
2021/10/31 02:42:40;;;;;;;0.00;0.00;;;10.60;99.90;;;;;;6296950;22;20513;-78
2021/10/31 02:45:08;;;;;;;0.00;0.00;;;10.70;99.90;;;;;;6322882;22;20029;-79
2021/10/31 02:47:38;;;;;;;0.28;0.20;;;10.70;99.90;;;;;;6322145;22;20069;-79
2021/10/31 02:50:08;;;;;;;0.00;0.00;;;10.70;99.90;;;;;;6296819;22;20305;-79
2021/10/31 02:52:42;;;;;;;0.00;0.00;;;10.70;99.90;;;;;;6296719;22;20019;-79
2021/10/31 02:55:22;;;;;;;0.10;0.10;;;10.70;99.90;;;;;;6296932;22;20021;-79
2021/10/31 02:57:55;;;;;;;0.00;0.00;;;10.70;99.90;;;;;;6297430;22;20344;-79
2021/10/31 03:00:25;;;;;;;0.00;0.00;;;10.70;99.90;;;;;;6322325;22;20095;-79
2021/10/31 03:02:52;;;;;;;0.00;0.00;;;10.70;99.90;;;;;;6297600;22;20023;-79
2021/10/31 03:05:19;;;;;;;0.00;0.00;;;10.60;99.90;;;;;;6322122;22;20398;-79
2021/10/31 03:07:46;;;;;;;0.10;0.10;;;10.60;99.90;;;;;;6322740;22;20012;-79
2021/10/31 03:10:19;;;;;;;0.00;0.00;;;10.60;99.90;;;;;;6297025;22;20472;-79
2021/10/31 03:12:49;;;;;;;0.00;0.00;;;10.60;99.90;;;;;;6296781;22;20037;-79
2021/10/31 03:15:17;;;;;;;0.10;0.10;;;10.60;99.90;;;;;;6271502;22;20015;-80
2021/10/31 03:17:44;;;;;;;0.00;0.00;;;10.60;99.90;;;;;;6246502;22;20059;-79
2021/10/31 03:20:11;;;;;;;0.00;0.00;;;10.60;99.90;;;;;;6322321;22;20100;-79
2021/10/31 03:22:38;;;;;;;0.00;0.00;;;10.60;99.90;;;;;;6270738;22;20130;-79
2021/10/31 03:25:05;;;;;;;0.10;0.10;;;10.60;99.90;;;;;;6296859;22;20015;-79
2021/10/31 03:27:32;;;;;;;0.00;0.00;;;10.60;99.90;;;;;;6296438;22;20049;-79
2021/10/31 03:29:59;;;;;;;0.00;0.00;;;10.60;99.90;;;;;;6297119;22;20456;-79
2021/10/31 03:32:25;;;;;;;0.03;0.03;;;10.60;99.90;;;;;;6296463;22;20440;-79
2021/10/31 03:34:53;;;;;;;0.20;0.20;;;10.60;99.90;;;;;;6296371;22;20356;-79
2021/10/31 03:37:20;;;;;;;0.00;0.00;;;10.50;99.90;;;;;;6296676;22;20145;-79
2021/10/31 03:39:46;;;;;;;0.00;0.00;;;10.50;99.90;;;;;;6271697;22;20087;-79
2021/10/31 03:42:13;;;;;;;0.00;0.00;;;10.50;99.90;;;;;;6296613;22;20025;-79
2021/10/31 03:44:48;;;;;;;0.00;0.00;;;10.50;99.90;;;;;;6296481;22;20650;-79
2021/10/31 03:47:17;;;;;;;0.00;0.00;;;10.50;99.90;;;;;;6298417;22;20022;-79
2021/10/31 03:49:43;;;;;;;0.00;0.00;;;10.50;99.90;;;;;;6271085;22;20258;-79
2021/10/31 03:52:12;;;;;;;0.00;0.00;;;10.50;99.90;;;;;;6296722;22;20015;-79
2021/10/31 03:54:39;;;;;;;0.00;0.00;;;10.50;99.90;;;;;;6271206;22;20352;-79
2021/10/31 03:57:07;;;;;;;0.00;0.00;;;10.50;99.90;;;;;;6296608;22;20436;-79
2021/10/31 03:59:34;;;;;;;0.10;0.10;;;10.40;99.90;;;;;;6270880;22;20016;-79
2021/10/31 04:02:02;;;;;;;0.00;0.00;;;10.40;99.90;;;;;;6297161;22;20023;-79
2021/10/31 04:04:29;;;;;;;0.10;0.10;;;10.40;99.90;;;;;;6321796;22;20038;-79
2021/10/31 04:06:56;;;;;;;0.00;0.00;;;10.40;99.90;;;;;;6296605;22;20018;-79
2021/10/31 04:09:22;;;;;;;0.00;0.00;;;10.40;99.90;;;;;;6322013;22;20015;-79
2021/10/31 04:11:49;;;;;;;0.00;0.00;;;10.40;99.90;;;;;;6296227;22;20015;-79
2021/10/31 04:14:16;;;;;;;0.00;0.00;;;10.40;99.90;;;;;;6296804;22;20047;-80
2021/10/31 04:16:43;;;;;;;0.00;0.00;;;10.40;99.90;;;;;;6271409;22;20022;-79
2021/10/31 04:19:10;;;;;;;0.10;0.10;;;10.40;99.90;;;;;;6296872;22;20023;-79
2021/10/31 04:21:36;;;;;;;0.10;0.10;;;10.40;99.90;;;;;;6296041;22;20011;-79
2021/10/31 04:24:03;;;;;;;0.30;0.10;;;10.40;99.90;;;;;;6271097;22;20050;-79
2021/10/31 04:26:31;;;;;;;2.13;0.20;;;10.30;99.90;;;;;;6245620;22;20023;-79
2021/10/31 04:28:58;;;;;;;0.00;0.00;;;10.40;99.90;;;;;;6322030;22;20462;-79
2021/10/31 04:31:24;;;;;;;0.00;0.00;;;10.40;99.90;;;;;;6246481;22;20019;-79
2021/10/31 04:33:51;;;;;;;0.47;0.13;;;10.30;99.90;;;;;;6296320;22;20062;-79
2021/10/31 04:36:18;;;;;;;0.00;0.00;;;10.30;99.90;;;;;;6298485;22;20050;-79
2021/10/31 04:38:48;;;;;;;0.00;0.00;;;10.40;99.90;;;;;;6323830;22;20026;-79
2021/10/31 04:41:15;;;;;;;0.17;0.17;;;10.40;99.90;;;;;;6298589;22;20015;-79
2021/10/31 04:43:41;;;;;;;0.00;0.00;;;10.40;99.90;;;;;;6272644;22;20096;-79
2021/10/31 04:46:08;;;;;;;0.00;0.00;;;10.40;99.90;;;;;;6298115;22;20022;-79
2021/10/31 04:48:35;;;;;;;0.00;0.00;;;10.40;99.90;;;;;;6272549;22;20094;-78
2021/10/31 04:51:02;;;;;;;0.35;0.15;;;10.30;99.90;;;;;;6298541;22;20015;-79
2021/10/31 04:53:28;;;;;;;0.10;0.10;;;10.40;99.90;;;;;;6297790;22;20021;-79
2021/10/31 04:55:55;;;;;;;0.00;0.00;;;10.30;99.90;;;;;;6248201;22;20456;-79
2021/10/31 04:58:22;;;;;;;0.13;0.13;;;10.40;99.90;;;;;;6323972;22;20448;-79
2021/10/31 05:00:48;;;;;;;0.47;0.10;;;10.40;99.90;;;;;;6273106;22;20022;-79
2021/10/31 05:03:15;;;;;;;0.00;0.00;;;10.40;99.90;;;;;;6298480;22;20015;-79
2021/10/31 05:05:42;;;;;;;0.00;0.00;;;10.40;99.90;;;;;;6297829;22;20019;-79
2021/10/31 05:08:08;;;;;;;0.00;0.00;;;10.40;99.90;;;;;;6272831;22;20015;-79
2021/10/31 05:10:35;;;;;;;0.00;0.00;;;10.30;99.90;;;;;;6297416;22;20015;-79
2021/10/31 05:13:02;;;;;;;0.00;0.00;;;10.40;99.90;;;;;;6297374;22;20440;-79
2021/10/31 05:15:29;;;;;;;0.00;0.00;;;10.40;99.90;;;;;;6298024;22;20027;-79
2021/10/31 05:17:56;;;;;;;0.13;0.10;;;10.40;99.90;;;;;;6297426;22;20015;-79
2021/10/31 05:20:23;;;;;;;0.00;0.00;;;10.40;99.90;;;;;;6272767;22;20452;-79
2021/10/31 05:22:49;;;;;;;0.65;0.20;;;10.40;99.90;;;;;;6247140;22;20102;-79
2021/10/31 05:25:16;;;;;;;0.00;0.00;;;10.40;99.90;;;;;;6247686;22;20019;-79
2021/10/31 05:27:43;;;;;;;0.10;0.10;;;10.40;99.90;;;;;;6298057;22;20104;-79
2021/10/31 05:30:11;;;;;;;0.00;0.00;;;10.40;99.90;;;;;;6272548;22;20034;-79
2021/10/31 05:32:40;;;;;;;0.00;0.00;;;10.40;99.90;;;;;;6323207;22;20043;-79
2021/10/31 05:35:09;;;;;;;0.10;0.10;;;10.50;99.90;;;;;;6323469;22;20015;-79
2021/10/31 05:37:40;;;;;;;0.00;0.00;;;10.40;99.90;;;;;;6323101;22;20395;-80
2021/10/31 05:40:09;;;;;;;0.00;0.00;;;10.40;99.90;;;;;;6273465;22;20109;-79
2021/10/31 05:42:37;;;;;;;0.00;0.00;;;10.40;99.90;;;;;;6323097;22;20069;-78
2021/10/31 05:45:07;;;;;;;0.08;0.08;;;10.40;99.90;;;;;;6297448;22;20019;-79
2021/10/31 05:47:38;;;;;;;0.00;0.00;;;10.40;99.90;;;;;;6248423;22;20011;-79
2021/10/31 05:50:07;;;;;;;0.00;0.00;;;10.40;99.90;;;;;;6297354;22;20019;-79
2021/10/31 05:52:34;;;;;;;0.00;0.00;;;10.40;99.90;;;;;;6349162;22;20085;-79
2021/10/31 05:55:01;;;;;;;0.00;0.00;;;10.40;99.90;;;;;;6297548;22;20479;-79
2021/10/31 05:57:28;;;;;;;0.00;0.00;;;10.30;99.90;;;;;;6297637;22;20015;-79
2021/10/31 05:59:55;;;;;;;0.00;0.00;;;10.40;99.90;;;;;;6297268;22;20015;-79
2021/10/31 06:02:22;;;;;;;0.00;0.00;;;10.30;99.90;;;;;;6272750;22;20093;-80
2021/10/31 06:04:49;;;;;;;0.00;0.00;;;10.30;99.90;;;;;;6322582;22;20065;-80
2021/10/31 06:07:16;;;;;;;0.10;0.10;;;10.30;99.90;;;;;;6322697;22;20015;-79
2021/10/31 06:09:43;;;;;;;0.00;0.00;;;10.30;99.90;;;;;;6297118;22;20634;-79
2021/10/31 06:12:10;;;;;;;0.08;0.08;;;10.30;99.90;;;;;;6298059;22;20108;-79
2021/10/31 06:14:38;;;;;;;0.00;0.00;;;10.30;99.90;;;;;;6298001;22;20019;-79
2021/10/31 06:17:05;;;;;;;0.00;0.00;;;10.30;99.90;;;;;;6297531;22;20019;-79
2021/10/31 06:19:35;;;;;;;0.00;0.00;;;10.30;99.90;;;;;;6322518;22;20069;-79
2021/10/31 06:22:02;;;;;;;0.00;0.00;;;10.20;99.90;;;;;;6297349;22;20069;-79
2021/10/31 06:24:29;;;;;;;0.00;0.00;;;10.20;99.90;;;;;;6297018;22;20348;-79
2021/10/31 06:26:56;;;;;;;0.00;0.00;;;10.20;99.90;;;;;;6296950;22;20054;-79
2021/10/31 06:29:23;;;;;;;0.10;0.10;;;10.20;99.90;;;;;;6296979;22;20478;-79
2021/10/31 06:31:50;;;;;;;0.10;0.10;;;10.20;99.90;;;;;;6270918;22;20019;-79
2021/10/31 06:34:17;;;;;;;0.00;0.00;;;10.20;99.90;;;;;;6296712;22;20054;-79
2021/10/31 06:36:45;;;;;;;0.00;0.00;;;10.20;99.90;;;;;;6321712;22;20038;-79
2021/10/31 06:39:12;;;;;;;0.00;0.00;;;10.20;99.90;;;;;;6322199;22;20026;-79
2021/10/31 06:41:39;;;;;;;0.00;0.00;;;10.20;99.90;;;;;;6272104;22;20019;-79
2021/10/31 06:44:05;;;;;;;0.00;0.00;;;10.20;99.90;;;;;;6296712;22;20019;-79
2021/10/31 06:46:32;;;;;;;0.00;0.00;;;10.20;99.90;;;;;;6296789;22;20467;-79
2021/10/31 06:49:00;;;;;;;0.10;0.10;;;10.20;99.90;;;;;;6295258;22;20023;-79
2021/10/31 06:51:27;;;;;;;0.25;0.20;;;10.20;99.90;;;;;;6320413;22;20100;-79
2021/10/31 06:53:53;;;;;;;0.00;0.00;;;10.20;99.90;;;;;;6320484;22;20336;-79
2021/10/31 06:56:20;;;;;;;0.00;0.00;;;10.20;99.90;;;;;;6295328;22;20019;-79
2021/10/31 06:58:47;;;;;;;0.00;0.00;;;10.30;99.90;;;;;;6244760;22;20459;-79
2021/10/31 07:01:13;;;;;;;0.00;0.00;;;10.20;99.90;;;;;;6296123;22;20015;-79
2021/10/31 07:03:41;;;;;;;0.00;0.00;;;10.20;99.90;;;;;;6245138;22;20019;-80
2021/10/31 07:06:10;;;;;;;0.00;0.00;;;10.20;99.90;;;;;;6269964;22;20077;-79
2021/10/31 07:08:37;;;;;;;0.00;0.00;;;10.20;99.90;;;;;;6321179;22;20038;-79
2021/10/31 07:11:04;;;;;;;0.00;0.00;;;10.20;99.90;;;;;;6295245;22;20015;-79
2021/10/31 07:13:30;;;;;;;0.00;0.00;;;10.10;99.90;;;;;;6295431;22;20073;-79
2021/10/31 07:15:57;;;;;;;0.00;0.00;;;10.20;99.90;;;;;;6244677;22;20015;-79
2021/10/31 07:18:24;;;;;;;0.00;0.00;;;10.20;99.90;;;;;;6320904;22;20031;-79
2021/10/31 07:20:50;;;;;;;0.00;0.00;;;10.30;99.90;;;;;;6294847;22;20019;-79
2021/10/31 07:23:17;;;;;;;0.00;0.00;;;10.30;99.90;;;;;;6295229;22;20022;-80
2021/10/31 07:25:44;;;;;;;0.00;0.00;;;10.30;99.90;;;;;;6245279;22;20046;-79
2021/10/31 07:28:11;;;;;;;0.00;0.00;;;10.30;99.90;;;;;;6320655;22;20016;-79
2021/10/31 07:30:38;;;;;;;0.10;0.10;;;10.30;99.90;;;;;;6321045;22;20015;-80
2021/10/31 07:33:04;;;;;;;0.00;0.00;;;10.40;99.90;;;;;;6295764;22;20019;-79
2021/10/31 07:35:32;;;;;;;0.88;0.13;;;10.30;99.90;;;;;;6270513;22;20016;-79
2021/10/31 07:37:59;;;;;;;0.00;0.00;;;10.40;99.90;;;;;;6320871;22;20102;-79
2021/10/31 07:40:26;;;;;;;0.10;0.10;;;10.40;99.90;;;;;;6321530;22;20017;-80
2021/10/31 07:42:53;;;;;;;0.00;0.00;;;10.40;99.90;;;;;;6320718;22;20750;-79
2021/10/31 07:45:19;;;;;;;0.00;0.00;;;10.50;99.90;;;;;;6295646;22;20322;-80
2021/10/31 07:47:47;;;;;;;0.00;0.00;;;10.50;99.90;;;;;;6295202;22;20128;-79
2021/10/31 07:50:17;;;;;;;0.85;0.10;;;10.50;99.90;;;;;;6223598;22;1094898;-79
2021/10/31 07:52:45;;;;;;;0.00;0.00;;;10.60;99.90;;;;;;6321825;22;20011;-80
2021/10/31 07:55:17;;;;;;;0.00;0.00;;;10.60;99.90;;;;;;6296393;22;20352;-79
2021/10/31 07:57:46;;;;;;;0.00;0.00;;;10.60;99.90;;;;;;6271964;22;20507;-79
2021/10/31 08:00:13;;;;;;;0.00;0.00;;;10.60;99.90;;;;;;6322189;22;20019;-79
2021/10/31 08:02:40;;;;;;;0.00;0.00;;;10.70;99.90;;;;;;6246672;22;20019;-80
2021/10/31 08:05:07;;;;;;;0.00;0.00;;;10.60;99.90;;;;;;6321705;22;20015;-79
2021/10/31 08:07:34;;;;;;;0.43;0.13;;;10.60;99.90;;;;;;6296342;22;20023;-80
2021/10/31 08:10:01;;;;;;;0.00;0.00;;;10.70;99.90;;;;;;6247886;22;20019;-79
2021/10/31 08:12:28;;;;;;;0.10;0.10;;;10.70;99.90;;;;;;6298690;22;20007;-79
2021/10/31 08:14:55;;;;;;;0.00;0.00;;;10.60;99.90;;;;;;6273110;22;20023;-79
2021/10/31 08:17:22;;;;;;;0.10;0.10;;;10.60;99.90;;;;;;6298181;22;20046;-79
2021/10/31 08:19:48;;;;;;;0.10;0.10;;;10.60;99.90;;;;;;6273784;22;20019;-79
2021/10/31 08:22:15;;;;;;;0.43;0.22;;;10.70;99.90;;;;;;6298090;22;20020;-80
2021/10/31 08:24:42;;;;;;;0.10;0.05;;;10.70;99.90;;;;;;6272997;22;20023;-80
2021/10/31 08:27:09;;;;;;;0.15;0.08;;;10.70;99.90;;;;;;6272732;22;20016;-80
2021/10/31 08:29:36;;;;;;;0.00;0.00;;;10.80;99.90;;;;;;6298348;22;20046;-78
2021/10/31 08:32:03;;;;;;;0.10;0.10;;;10.80;99.90;;;;;;6297441;22;20098;-79
2021/10/31 08:34:30;;;;;;;0.00;0.00;;;10.90;99.90;;;;;;6273239;22;20015;-78
2021/10/31 08:36:56;;;;;;;0.40;0.30;;;11.00;99.90;;;;;;6297637;22;20072;-79
2021/10/31 08:39:23;;;;;;;0.00;0.00;;;11.00;99.90;;;;;;6297931;22;20011;-78
2021/10/31 08:41:50;;;;;;;0.25;0.10;;;11.00;99.90;;;;;;6298237;22;20022;-78
2021/10/31 08:44:17;;;;;;;0.00;0.00;;;11.10;99.90;;;;;;6322658;22;20094;-78
2021/10/31 08:46:44;;;;;;;0.55;0.30;;;11.00;99.90;;;;;;6297373;22;20539;-78
2021/10/31 08:49:10;;;;;;;0.00;0.00;;;11.10;99.90;;;;;;6297708;22;20079;-79
2021/10/31 08:51:38;;;;;;;0.00;0.00;;;11.10;99.90;;;;;;6297978;22;20068;-79
2021/10/31 08:54:08;;;;;;;0.00;0.00;;;11.10;99.90;;;;;;6322999;22;20015;-78
2021/10/31 08:56:35;;;;;;;0.00;0.00;;;11.10;99.90;;;;;;6297809;22;20076;-78
2021/10/31 08:59:02;;;;;;;0.08;0.08;;;11.10;99.90;;;;;;6323231;22;20114;-78
2021/10/31 09:01:32;;;;;;;0.10;0.10;;;11.10;99.90;;;;;;6272465;22;20355;-78
2021/10/31 09:04:00;;;;;;;0.00;0.00;;;11.10;99.90;;;;;;6322818;22;20102;-78
2021/10/31 09:06:27;;;;;;;0.00;0.00;;;11.10;99.90;;;;;;6297934;22;20026;-78
2021/10/31 09:08:54;;;;;;;0.00;0.00;;;11.20;99.90;;;;;;6297698;22;20015;-79
2021/10/31 09:11:21;;;;;;;0.00;0.00;;;11.20;99.90;;;;;;6297379;22;20016;-78
2021/10/31 09:13:49;;;;;;;0.00;0.00;;;11.30;99.90;;;;;;6297992;22;20326;-79
2021/10/31 09:16:17;;;;;;;0.52;0.38;;;11.40;99.90;;;;;;6272211;22;20022;-78
2021/10/31 09:18:44;;;;;;;0.00;0.00;;;11.40;99.90;;;;;;6272457;22;20015;-78
2021/10/31 09:21:11;;;;;;;0.00;0.00;;;11.40;99.90;;;;;;6296921;22;20016;-78
2021/10/31 09:23:38;;;;;;;0.00;0.00;;;11.50;99.90;;;;;;6297461;22;20054;-78
2021/10/31 09:26:05;;;;;;;0.05;0.05;;;11.50;99.90;;;;;;6297027;22;20045;-79
2021/10/31 09:28:31;;;;;;;0.00;0.00;;;11.60;99.90;;;;;;6323276;22;20015;-79
2021/10/31 09:30:58;;;;;;;0.20;0.10;;;11.60;99.90;;;;;;6297962;22;20015;-78
2021/10/31 09:33:25;;;;;;;0.00;0.00;;;11.70;99.90;;;;;;6271910;22;20343;-80
2021/10/31 09:35:57;;;;;;;0.28;0.28;;;11.70;99.90;;;;;;6298535;22;20020;-83
2021/10/31 09:38:26;;;;;;;0.00;0.00;;;11.80;99.90;;;;;;6249514;22;20508;-83
2021/10/31 09:40:55;;;;;;;0.00;0.00;;;11.80;99.90;;;;;;6249069;22;20340;-83
2021/10/31 09:43:29;;;;;;;1.17;0.70;;;11.80;99.90;;;;;;6297748;22;20020;-82
2021/10/31 09:45:59;;;;;;;0.00;0.00;;;11.80;99.90;;;;;;6323598;22;20062;-83
2021/10/31 09:48:31;;;;;;;0.00;0.00;;;11.80;99.90;;;;;;6272597;22;20022;-83
2021/10/31 09:50:59;;;;;;;0.00;0.00;;;11.80;99.90;;;;;;6298158;22;20054;-83
2021/10/31 09:53:26;;;;;;;0.20;0.20;;;11.90;99.90;;;;;;6297771;22;20011;-83
2021/10/31 09:55:54;;;;;;;0.00;0.00;;;11.90;99.90;;;;;;6298271;22;20061;-84
2021/10/31 09:58:25;;;;;;;0.00;0.00;;;11.90;99.90;;;;;;6298216;22;20132;-84
2021/10/31 10:00:55;;;;;;;0.00;0.00;;;12.00;99.90;;;;;;6323700;22;20023;-84
2021/10/31 10:06:11;;;;;;;0.00;0.00;;;12.20;99.90;;;;;;6297758;22;20339;-83
2021/10/31 10:08:38;;;;;;;0.00;0.00;;;12.30;99.90;;;;;;6297751;22;20094;-83
2021/10/31 10:11:19;;;;;;;0.00;0.00;;;12.40;99.90;;;;;;6322940;22;20558;-83
2021/10/31 10:13:46;;;;;;;0.00;0.00;;;12.40;99.90;;;;;;6297837;22;20090;-83
2021/10/31 10:16:29;;;;;;;0.00;0.00;;;12.50;99.90;;;;;;6272592;22;20391;-82
2021/10/31 10:18:57;;;;;;;0.00;0.00;;;12.50;99.90;;;;;;6272616;22;20098;-83
2021/10/31 10:21:31;;;;;;;0.00;0.00;;;12.50;99.90;;;;;;6297454;22;20019;-81
2021/10/31 10:24:01;;;;;;;0.40;0.13;;;12.60;99.90;;;;;;6297817;22;20015;-83
2021/10/31 10:26:43;;;;;;;0.00;0.00;;;12.60;99.90;;;;;;6322772;22;20019;-83
2021/10/31 10:29:14;;;;;;;0.52;0.15;;;12.60;99.90;;;;;;6297058;22;20018;-83
2021/10/31 10:31:46;;;;;;;0.20;0.20;;;12.60;99.90;;;;;;6323350;22;20018;-83
2021/10/31 10:34:14;;;;;;;0.00;0.00;;;12.70;99.90;;;;;;6322982;22;20015;-80
2021/10/31 10:36:44;;;;;;;0.10;0.10;;;12.70;99.90;;;;;;6297577;22;20098;-80
2021/10/31 10:39:14;;;;;;;0.00;0.00;;;12.70;99.90;;;;;;6272801;22;20019;-80
2021/10/31 10:41:45;;;;;;;0.00;0.00;;;12.80;99.90;;;;;;6297347;22;20038;-80
2021/10/31 10:44:26;;;;;;;0.20;0.20;;;12.80;99.90;;;;;;6297011;22;20555;-80
2021/10/31 10:46:57;;;;;;;0.00;0.00;;;12.90;99.90;;;;;;6297686;22;20053;-80
2021/10/31 10:49:25;;;;;;;0.00;0.00;;;12.90;99.90;;;;;;6298010;22;20317;-80
2021/10/31 10:52:16;;;;;;;0.00;0.00;;;13.00;99.90;;;;;;6272576;22;20023;-80
2021/10/31 10:54:46;;;;;;;0.00;0.00;;;13.10;99.90;;;;;;6297829;22;20015;-80
2021/10/31 10:57:14;;;;;;;0.00;0.00;;;13.20;99.90;;;;;;6297130;22;20065;-80
2021/10/31 10:59:41;;;;;;;0.00;0.00;;;13.30;99.90;;;;;;6272206;22;20022;-80
2021/10/31 11:02:15;;;;;;;0.00;0.00;;;13.30;99.90;;;;;;6272029;22;20023;-80
2021/10/31 11:04:45;;;;;;;0.08;0.08;;;13.30;99.90;;;;;;6296830;22;20475;-80
2021/10/31 11:07:13;;;;;;;0.00;0.00;;;13.30;99.90;;;;;;6322138;22;20019;-79
2021/10/31 11:09:48;;;;;;;0.00;0.00;;;13.30;99.90;;;;;;6322565;22;20043;-80
2021/10/31 11:12:22;;;;;;;0.00;0.00;;;13.20;99.90;;;;;;6296735;22;20407;-80
2021/10/31 11:14:50;;;;;;;0.00;0.00;;;13.20;99.90;;;;;;6296919;22;20019;-80
2021/10/31 11:17:17;;;;;;;0.00;0.00;;;13.20;99.90;;;;;;6271534;22;20368;-80
2021/10/31 11:19:45;;;;;;;0.08;0.08;;;13.30;99.90;;;;;;6271395;22;20571;-80
2021/10/31 11:22:15;;;;;;;0.00;0.00;;;13.40;99.90;;;;;;6271202;22;20443;-80
2021/10/31 11:24:46;;;;;;;0.00;0.00;;;13.50;99.90;;;;;;6272167;22;20015;-80
2021/10/31 11:27:17;;;;;;;0.20;0.20;;;13.40;99.90;;;;;;6322525;22;20015;-80
2021/10/31 11:29:45;;;;;;;0.10;0.10;;;13.50;99.90;;;;;;6322111;22;20340;-79
2021/10/31 11:32:13;;;;;;;0.05;0.05;;;13.50;99.90;;;;;;6322242;22;20015;-79
2021/10/31 11:34:49;;;;;;;0.10;0.10;;;13.60;99.90;;;;;;6296080;22;20023;-80
2021/10/31 11:37:20;;;;;;;0.00;0.00;;;13.50;99.90;;;;;;6272324;22;20073;-80
2021/10/31 11:39:52;;;;;;;0.00;0.00;;;13.60;99.90;;;;;;6297133;22;20034;-79
2021/10/31 11:42:19;;;;;;;0.00;0.00;;;13.50;99.90;;;;;;6322065;22;20022;-80
2021/10/31 11:45:07;;;;;;;0.00;0.00;;;13.50;99.90;;;;;;6271765;22;20379;-80
2021/10/31 11:47:37;;;;;;;0.00;0.00;;;13.60;99.90;;;;;;6296371;22;20015;-80
2021/10/31 11:50:10;;;;;;;0.13;0.13;;;13.60;99.90;;;;;;6296719;22;20019;-80
2021/10/31 11:52:57;;;;;;;0.10;0.10;;;13.60;99.90;;;;;;6296449;22;20015;-79
2021/10/31 11:55:29;;;;;;;0.10;0.10;;;13.70;99.90;;;;;;6296431;22;20015;-79
2021/10/31 11:58:26;;;;;;;0.00;0.00;;;13.70;99.90;;;;;;6296752;22;20019;-79
2021/10/31 12:00:56;;;;;;;0.00;0.00;;;13.70;99.90;;;;;;6287612;22;20022;-79
2021/10/31 12:03:44;;;;;;;0.00;0.00;;;13.80;99.90;;;;;;6296220;22;20459;-80
2021/10/31 12:06:16;;;;;;;0.00;0.00;;;13.80;99.90;;;;;;6296723;22;20016;-80
2021/10/31 12:08:44;;;;;;;0.00;0.00;;;13.70;99.90;;;;;;6321465;22;20047;-80
2021/10/31 12:11:11;;;;;;;0.00;0.00;;;13.70;99.90;;;;;;6321898;22;20149;-80
2021/10/31 12:13:45;;;;;;;0.00;0.00;;;13.70;99.90;;;;;;6296429;22;20407;-80
2021/10/31 12:16:14;;;;;;;0.17;0.17;;;13.70;99.90;;;;;;6322629;22;20395;-79
2021/10/31 12:18:51;;;;;;;0.00;0.00;;;13.70;99.90;;;;;;6296284;22;20027;-79
2021/10/31 12:21:26;;;;;;;0.00;0.00;;;13.70;99.90;;;;;;6296619;22;20385;-80
2021/10/31 12:24:03;;;;;;;0.00;0.00;;;13.70;99.90;;;;;;6273166;22;20016;-82
2021/10/31 12:26:34;;;;;;;0.10;0.10;;;13.80;99.90;;;;;;6297031;22;20336;-83
2021/10/31 12:29:17;;;;;;;0.00;0.00;;;13.80;99.90;;;;;;6322616;22;20026;-83
2021/10/31 12:31:57;;;;;;;0.00;0.00;;;13.80;99.90;;;;;;6322557;22;20023;-84
2021/10/31 12:34:44;;;;;;;0.00;0.00;;;13.80;99.90;;;;;;6296639;22;20400;-84
2021/10/31 12:37:23;;;;;;;0.00;0.00;;;13.80;99.90;;;;;;6296909;22;20046;-84
2021/10/31 12:40:05;;;;;;;0.65;0.45;;;13.80;99.90;;;;;;6297304;22;20057;-84
2021/10/31 12:42:51;;;;;;;0.00;0.00;;;13.70;99.90;;;;;;6322387;22;20344;-83
2021/10/31 12:45:19;;;;;;;0.10;0.10;;;13.70;99.90;;;;;;6297050;22;20615;-83
2021/10/31 12:47:55;;;;;;;0.00;0.00;;;13.80;99.90;;;;;;6296765;22;20023;-84
2021/10/31 12:50:23;;;;;;;0.00;0.00;;;13.80;99.90;;;;;;6272230;22;20019;-85
2021/10/31 12:53:19;;;;;;;0.00;0.00;;;13.80;99.90;;;;;;6296862;22;20015;-84
2021/10/31 12:55:46;;;;;;;0.00;0.00;;;13.80;99.90;;;;;;6272379;22;20019;-84
2021/10/31 12:58:22;;;;;;;0.00;0.00;;;13.80;99.90;;;;;;6248466;22;20017;-85
2021/10/31 13:00:53;;;;;;;0.00;0.00;;;13.80;99.90;;;;;;6298562;22;20348;-85
2021/10/31 13:03:21;;;;;;;0.00;0.00;;;13.80;99.90;;;;;;6273702;22;20101;-85
2021/10/31 13:05:48;;;;;;;0.00;0.00;;;13.80;99.90;;;;;;6273148;22;20015;-85